sensor_id;sensor_type;location;lat;lon;timestamp;pressure;altitude;pressure_sealevel;temperature;humidity
43745;BME280;29359;53.048;8.732;2023-07-20T00:01:56;101383.69;;;14.88;87.35
43745;BME280;29359;53.048;8.732;2023-07-20T00:03:59;101380.97;;;14.89;87.35
43745;BME280;29359;53.048;8.732;2023-07-20T00:06:02;101380.13;;;14.89;87.57
43745;BME280;29359;53.048;8.732;2023-07-20T00:08:05;101378.31;;;14.89;87.99
43745;BME280;29359;53.048;8.732;2023-07-20T00:10:10;101376.59;;;14.88;88.10
43745;BME280;29359;53.048;8.732;2023-07-20T00:12:13;101375.72;;;14.88;88.81
43745;BME280;29359;53.048;8.732;2023-07-20T00:14:16;101381.09;;;14.86;89.01
43745;BME280;29359;53.048;8.732;2023-07-20T00:16:19;101377.63;;;14.84;89.53
43745;BME280;29359;53.048;8.732;2023-07-20T00:18:22;101374.09;;;14.84;89.99
43745;BME280;29359;53.048;8.732;2023-07-20T00:20:25;101377.69;;;14.83;89.97
43745;BME280;29359;53.048;8.732;2023-07-20T00:22:28;101376.75;;;14.84;90.47
43745;BME280;29359;53.048;8.732;2023-07-20T00:24:31;101373.19;;;14.85;90.38
43745;BME280;29359;53.048;8.732;2023-07-20T00:26:36;101373.97;;;14.87;90.43
43745;BME280;29359;53.048;8.732;2023-07-20T00:28:39;101374.84;;;14.87;90.35
43745;BME280;29359;53.048;8.732;2023-07-20T00:30:42;101377.50;;;14.87;90.51
43745;BME280;29359;53.048;8.732;2023-07-20T00:32:44;101374.84;;;14.87;90.65
43745;BME280;29359;53.048;8.732;2023-07-20T00:34:47;101378.38;;;14.88;90.72
43745;BME280;29359;53.048;8.732;2023-07-20T00:36:50;101371.31;;;14.87;90.73
43745;BME280;29359;53.048;8.732;2023-07-20T00:38:52;101376.66;;;14.87;90.93
43745;BME280;29359;53.048;8.732;2023-07-20T00:40:55;101382.06;;;14.84;91.10
43745;BME280;29359;53.048;8.732;2023-07-20T00:42:59;101389.34;;;14.79;91.55
43745;BME280;29359;53.048;8.732;2023-07-20T00:45:03;101391.50;;;14.67;92.10
43745;BME280;29359;53.048;8.732;2023-07-20T00:47:06;101385.50;;;14.62;92.48
43745;BME280;29359;53.048;8.732;2023-07-20T00:49:09;101390.00;;;14.60;93.00
43745;BME280;29359;53.048;8.732;2023-07-20T00:51:12;101386.53;;;14.58;93.42
43745;BME280;29359;53.048;8.732;2023-07-20T00:53:15;101387.44;;;14.57;93.47
43745;BME280;29359;53.048;8.732;2023-07-20T00:55:18;101381.16;;;14.60;93.79
43745;BME280;29359;53.048;8.732;2023-07-20T00:57:29;101379.38;;;14.60;94.24
43745;BME280;29359;53.048;8.732;2023-07-20T00:59:34;101385.72;;;14.56;94.15
43745;BME280;29359;53.048;8.732;2023-07-20T01:01:37;101384.03;;;14.54;94.68
43745;BME280;29359;53.048;8.732;2023-07-20T01:03:40;101378.91;;;14.49;95.35
43745;BME280;29359;53.048;8.732;2023-07-20T01:05:54;101387.94;;;14.43;96.23
43745;BME280;29359;53.048;8.732;2023-07-20T01:08:00;101381.16;;;14.35;97.20
43745;BME280;29359;53.048;8.732;2023-07-20T01:10:09;101385.59;;;14.34;97.91
43745;BME280;29359;53.048;8.732;2023-07-20T01:12:18;101391.03;;;14.30;98.30
43745;BME280;29359;53.048;8.732;2023-07-20T01:14:25;101390.31;;;14.25;99.49
43745;BME280;29359;53.048;8.732;2023-07-20T01:16:28;101384.25;;;14.21;100.00
43745;BME280;29359;53.048;8.732;2023-07-20T01:18:31;101388.75;;;14.19;100.00
43745;BME280;29359;53.048;8.732;2023-07-20T01:20:34;101386.97;;;14.20;100.00
43745;BME280;29359;53.048;8.732;2023-07-20T01:22:52;101388.69;;;14.21;100.00
43745;BME280;29359;53.048;8.732;2023-07-20T01:25:19;101382.47;;;14.22;100.00
43745;BME280;29359;53.048;8.732;2023-07-20T01:27:51;101387.78;;;14.22;100.00
43745;BME280;29359;53.048;8.732;2023-07-20T01:30:12;101388.66;;;14.22;100.00
43745;BME280;29359;53.048;8.732;2023-07-20T01:32:22;101381.53;;;14.23;100.00
43745;BME280;29359;53.048;8.732;2023-07-20T01:34:26;101383.28;;;14.24;100.00
43745;BME280;29359;53.048;8.732;2023-07-20T01:36:31;101382.31;;;14.26;100.00
43745;BME280;29359;53.048;8.732;2023-07-20T01:38:36;101385.00;;;14.25;100.00
43745;BME280;29359;53.048;8.732;2023-07-20T01:40:40;101369.03;;;14.26;100.00
43745;BME280;29359;53.048;8.732;2023-07-20T01:42:44;101377.03;;;14.25;100.00
43745;BME280;29359;53.048;8.732;2023-07-20T01:44:47;101370.81;;;14.26;100.00
43745;BME280;29359;53.048;8.732;2023-07-20T01:46:50;101364.59;;;14.27;100.00
43745;BME280;29359;53.048;8.732;2023-07-20T01:48:54;101366.31;;;14.28;100.00
43745;BME280;29359;53.048;8.732;2023-07-20T01:50:57;101372.50;;;14.28;100.00
43745;BME280;29359;53.048;8.732;2023-07-20T01:53:00;101377.97;;;14.24;100.00
43745;BME280;29359;53.048;8.732;2023-07-20T01:55:04;101377.03;;;14.25;100.00
43745;BME280;29359;53.048;8.732;2023-07-20T01:57:07;101373.47;;;14.26;100.00
43745;BME280;29359;53.048;8.732;2023-07-20T01:59:10;101375.25;;;14.25;100.00
43745;BME280;29359;53.048;8.732;2023-07-20T02:01:12;101372.53;;;14.27;100.00
43745;BME280;29359;53.048;8.732;2023-07-20T02:03:15;101377.97;;;14.24;100.00
43745;BME280;29359;53.048;8.732;2023-07-20T02:05:19;101374.38;;;14.25;100.00
43745;BME280;29359;53.048;8.732;2023-07-20T02:07:21;101377.16;;;14.22;100.00
43745;BME280;29359;53.048;8.732;2023-07-20T02:09:24;101382.53;;;14.20;100.00
43745;BME280;29359;53.048;8.732;2023-07-20T02:11:27;101381.66;;;14.20;100.00
43745;BME280;29359;53.048;8.732;2023-07-20T02:13:30;101383.44;;;14.19;100.00
43745;BME280;29359;53.048;8.732;2023-07-20T02:15:32;101379.06;;;14.18;100.00
43745;BME280;29359;53.048;8.732;2023-07-20T02:17:35;101379.22;;;14.13;100.00
43745;BME280;29359;53.048;8.732;2023-07-20T02:19:40;101377.47;;;14.12;100.00
43745;BME280;29359;53.048;8.732;2023-07-20T02:21:45;101382.06;;;14.07;100.00
43745;BME280;29359;53.048;8.732;2023-07-20T02:23:48;101375.13;;;14.03;100.00
43745;BME280;29359;53.048;8.732;2023-07-20T02:25:50;101377.84;;;14.02;100.00
43745;BME280;29359;53.048;8.732;2023-07-20T02:27:53;101376.16;;;13.99;100.00
43745;BME280;29359;53.048;8.732;2023-07-20T02:29:56;101373.34;;;14.04;100.00
43745;BME280;29359;53.048;8.732;2023-07-20T02:31:59;101371.34;;;14.10;100.00
43745;BME280;29359;53.048;8.732;2023-07-20T02:34:02;101377.38;;;14.15;100.00
43745;BME280;29359;53.048;8.732;2023-07-20T02:36:04;101368.47;;;14.17;100.00
43745;BME280;29359;53.048;8.732;2023-07-20T02:38:09;101372.81;;;14.19;100.00
43745;BME280;29359;53.048;8.732;2023-07-20T02:40:12;101368.31;;;14.21;100.00
43745;BME280;29359;53.048;8.732;2023-07-20T02:42:14;101378.88;;;14.23;100.00
43745;BME280;29359;53.048;8.732;2023-07-20T02:44:17;101379.91;;;14.19;100.00
43745;BME280;29359;53.048;8.732;2023-07-20T02:46:20;101378.19;;;14.18;100.00
43745;BME280;29359;53.048;8.732;2023-07-20T02:48:23;101382.56;;;14.19;100.00
43745;BME280;29359;53.048;8.732;2023-07-20T02:50:26;101376.34;;;14.20;100.00
43745;BME280;29359;53.048;8.732;2023-07-20T02:52:29;101385.13;;;14.22;100.00
43745;BME280;29359;53.048;8.732;2023-07-20T02:54:32;101378.03;;;14.22;100.00
43745;BME280;29359;53.048;8.732;2023-07-20T02:56:35;101376.22;;;14.23;100.00
43745;BME280;29359;53.048;8.732;2023-07-20T02:58:40;101378.88;;;14.23;100.00
43745;BME280;29359;53.048;8.732;2023-07-20T03:00:45;101376.22;;;14.23;100.00
43745;BME280;29359;53.048;8.732;2023-07-20T03:02:47;101377.09;;;14.23;100.00
43745;BME280;29359;53.048;8.732;2023-07-20T03:04:50;101375.31;;;14.24;100.00
43745;BME280;29359;53.048;8.732;2023-07-20T03:06:52;101375.25;;;14.25;100.00
43745;BME280;29359;53.048;8.732;2023-07-20T03:08:55;101382.31;;;14.26;100.00
43745;BME280;29359;53.048;8.732;2023-07-20T03:10:59;101374.38;;;14.25;100.00
43745;BME280;29359;53.048;8.732;2023-07-20T03:13:02;101376.19;;;14.24;100.00
43745;BME280;29359;53.048;8.732;2023-07-20T03:15:06;101379.69;;;14.25;100.00
43745;BME280;29359;53.048;8.732;2023-07-20T03:17:09;101383.34;;;14.22;100.00
43745;BME280;29359;53.048;8.732;2023-07-20T03:19:12;101386.00;;;14.22;100.00
43745;BME280;29359;53.048;8.732;2023-07-20T03:21:14;101380.69;;;14.22;100.00
43745;BME280;29359;53.048;8.732;2023-07-20T03:23:17;101381.44;;;14.26;100.00
43745;BME280;29359;53.048;8.732;2023-07-20T03:25:20;101377.00;;;14.26;100.00
43745;BME280;29359;53.048;8.732;2023-07-20T03:27:24;101385.00;;;14.25;100.00
43745;BME280;29359;53.048;8.732;2023-07-20T03:29:27;101391.31;;;14.22;100.00
43745;BME280;29359;53.048;8.732;2023-07-20T03:31:28;101386.00;;;14.22;100.00
43745;BME280;29359;53.048;8.732;2023-07-20T03:33:31;101389.63;;;14.20;100.00
43745;BME280;29359;53.048;8.732;2023-07-20T03:35:35;101391.34;;;14.21;100.00
43745;BME280;29359;53.048;8.732;2023-07-20T03:37:38;101392.28;;;14.20;100.00
43745;BME280;29359;53.048;8.732;2023-07-20T03:39:40;101394.97;;;14.18;100.00
43745;BME280;29359;53.048;8.732;2023-07-20T03:41:43;101388.81;;;14.18;100.00
43745;BME280;29359;53.048;8.732;2023-07-20T03:43:47;101390.53;;;14.19;100.00
43745;BME280;29359;53.048;8.732;2023-07-20T03:45:50;101392.16;;;14.23;100.00
43745;BME280;29359;53.048;8.732;2023-07-20T03:47:53;101391.25;;;14.24;100.00
43745;BME280;29359;53.048;8.732;2023-07-20T03:49:56;101397.38;;;14.26;100.00
43745;BME280;29359;53.048;8.732;2023-07-20T03:52:00;101394.66;;;14.27;100.00
43745;BME280;29359;53.048;8.732;2023-07-20T03:54:04;101398.13;;;14.29;100.00
43745;BME280;29359;53.048;8.732;2023-07-20T03:56:07;101404.38;;;14.28;100.00
43745;BME280;29359;53.048;8.732;2023-07-20T03:58:10;101395.53;;;14.28;100.00
43745;BME280;29359;53.048;8.732;2023-07-20T04:00:14;101407.84;;;14.30;100.00
43745;BME280;29359;53.048;8.732;2023-07-20T04:02:17;101407.84;;;14.30;100.00
43745;BME280;29359;53.048;8.732;2023-07-20T04:04:20;101406.97;;;14.30;100.00
43745;BME280;29359;53.048;8.732;2023-07-20T04:06:23;101399.91;;;14.29;100.00
43745;BME280;29359;53.048;8.732;2023-07-20T04:08:26;101410.50;;;14.30;100.00
43745;BME280;29359;53.048;8.732;2023-07-20T04:10:29;101406.09;;;14.31;100.00
43745;BME280;29359;53.048;8.732;2023-07-20T04:12:32;101406.91;;;14.33;100.00
43745;BME280;29359;53.048;8.732;2023-07-20T04:14:35;101411.34;;;14.32;100.00
43745;BME280;29359;53.048;8.732;2023-07-20T04:16:39;101410.47;;;14.32;100.00
43745;BME280;29359;53.048;8.732;2023-07-20T04:18:42;101409.50;;;14.34;100.00
43745;BME280;29359;53.048;8.732;2023-07-20T04:20:45;101412.22;;;14.33;100.00
43745;BME280;29359;53.048;8.732;2023-07-20T04:22:48;101410.47;;;14.32;100.00
43745;BME280;29359;53.048;8.732;2023-07-20T04:24:51;101415.81;;;14.30;100.00
43745;BME280;29359;53.048;8.732;2023-07-20T04:26:54;101418.47;;;14.30;100.00
43745;BME280;29359;53.048;8.732;2023-07-20T04:28:56;101414.03;;;14.31;100.00
43745;BME280;29359;53.048;8.732;2023-07-20T04:31:09;101420.19;;;14.33;100.00
43745;BME280;29359;53.048;8.732;2023-07-20T04:33:14;101421.97;;;14.32;100.00
43745;BME280;29359;53.048;8.732;2023-07-20T04:35:21;101421.09;;;14.32;100.00
43745;BME280;29359;53.048;8.732;2023-07-20T04:37:40;101421.09;;;14.32;100.00
43745;BME280;29359;53.048;8.732;2023-07-20T04:39:46;101416.53;;;14.35;100.00
43745;BME280;29359;53.048;8.732;2023-07-20T04:41:48;101422.63;;;14.39;100.00
43745;BME280;29359;53.048;8.732;2023-07-20T04:43:51;101425.16;;;14.43;100.00
43745;BME280;29359;53.048;8.732;2023-07-20T04:45:54;101426.72;;;14.49;100.00
43745;BME280;29359;53.048;8.732;2023-07-20T04:47:57;101428.44;;;14.50;100.00
43745;BME280;29359;53.048;8.732;2023-07-20T04:50:01;101432.94;;;14.48;100.00
43745;BME280;29359;53.048;8.732;2023-07-20T04:52:04;101422.22;;;14.51;100.00
43745;BME280;29359;53.048;8.732;2023-07-20T04:54:07;101423.63;;;14.61;100.00
43745;BME280;29359;53.048;8.732;2023-07-20T04:56:10;101424.16;;;14.71;100.00
43745;BME280;29359;53.048;8.732;2023-07-20T04:58:13;101424.09;;;14.72;100.00
43745;BME280;29359;53.048;8.732;2023-07-20T05:00:17;101422.22;;;14.76;100.00
43745;BME280;29359;53.048;8.732;2023-07-20T05:02:20;101423.09;;;14.76;100.00
43745;BME280;29359;53.048;8.732;2023-07-20T05:04:23;101427.44;;;14.79;100.00
43745;BME280;29359;53.048;8.732;2023-07-20T05:06:31;101429.75;;;14.88;100.00
43745;BME280;29359;53.048;8.732;2023-07-20T05:08:34;101432.00;;;14.99;100.00
43745;BME280;29359;53.048;8.732;2023-07-20T05:10:37;101427.16;;;15.10;100.00
43745;BME280;29359;53.048;8.732;2023-07-20T05:12:39;101431.31;;;15.17;100.00
43745;BME280;29359;53.048;8.732;2023-07-20T05:14:42;101430.19;;;15.24;100.00
43745;BME280;29359;53.048;8.732;2023-07-20T05:16:45;101431.88;;;15.27;100.00
43745;BME280;29359;53.048;8.732;2023-07-20T05:18:48;101425.44;;;15.32;100.00
43745;BME280;29359;53.048;8.732;2023-07-20T05:20:51;101427.06;;;15.36;100.00
43745;BME280;29359;53.048;8.732;2023-07-20T05:22:55;101427.88;;;15.38;99.95
43745;BME280;29359;53.048;8.732;2023-07-20T05:24:58;101437.34;;;15.46;99.58
43745;BME280;29359;53.048;8.732;2023-07-20T05:27:00;101438.28;;;15.45;98.23
43745;BME280;29359;53.048;8.732;2023-07-20T05:29:03;101437.09;;;15.52;97.95
43745;BME280;29359;53.048;8.732;2023-07-20T05:31:06;101440.75;;;15.49;97.07
43745;BME280;29359;53.048;8.732;2023-07-20T05:33:09;101437.16;;;15.50;96.61
43745;BME280;29359;53.048;8.732;2023-07-20T05:35:11;101433.56;;;15.51;96.04
43745;BME280;29359;53.048;8.732;2023-07-20T05:37:15;101439.75;;;15.52;95.78
43745;BME280;29359;53.048;8.732;2023-07-20T05:39:19;101440.44;;;15.57;95.78
43745;BME280;29359;53.048;8.732;2023-07-20T05:41:22;101435.13;;;15.57;95.30
43745;BME280;29359;53.048;8.732;2023-07-20T05:43:25;101445.94;;;15.52;94.72
43745;BME280;29359;53.048;8.732;2023-07-20T05:45:28;101441.44;;;15.54;94.54
43745;BME280;29359;53.048;8.732;2023-07-20T05:47:30;101447.81;;;15.50;93.68
43745;BME280;29359;53.048;8.732;2023-07-20T05:49:34;101452.38;;;15.47;92.83
43745;BME280;29359;53.048;8.732;2023-07-20T05:51:36;101445.25;;;15.47;92.69
43745;BME280;29359;53.048;8.732;2023-07-20T05:53:40;101455.78;;;15.50;92.43
43745;BME280;29359;53.048;8.732;2023-07-20T05:55:44;101449.28;;;15.59;92.15
43745;BME280;29359;53.048;8.732;2023-07-20T05:57:47;101450.72;;;15.67;92.36
43745;BME280;29359;53.048;8.732;2023-07-20T05:59:51;101453.09;;;15.75;92.39
43745;BME280;29359;53.048;8.732;2023-07-20T06:01:53;101461.06;;;15.75;91.20
43745;BME280;29359;53.048;8.732;2023-07-20T06:03:56;101449.56;;;15.75;89.88
43745;BME280;29359;53.048;8.732;2023-07-20T06:05:59;101451.03;;;15.82;89.97
43745;BME280;29359;53.048;8.732;2023-07-20T06:08:04;101451.53;;;15.91;90.16
43745;BME280;29359;53.048;8.732;2023-07-20T06:10:07;101457.34;;;16.01;90.58
43745;BME280;29359;53.048;8.732;2023-07-20T06:12:11;101460.06;;;15.99;88.53
43745;BME280;29359;53.048;8.732;2023-07-20T06:14:14;101462.88;;;15.96;87.28
43745;BME280;29359;53.048;8.732;2023-07-20T06:16:17;101454.81;;;15.98;86.82
43745;BME280;29359;53.048;8.732;2023-07-20T06:18:20;101464.34;;;16.03;86.75
43745;BME280;29359;53.048;8.732;2023-07-20T06:20:24;101465.06;;;16.09;86.21
43745;BME280;29359;53.048;8.732;2023-07-20T06:22:27;101461.66;;;16.05;84.80
43745;BME280;29359;53.048;8.732;2023-07-20T06:24:29;101466.84;;;16.08;85.40
43745;BME280;29359;53.048;8.732;2023-07-20T06:26:32;101470.25;;;16.12;85.02
43745;BME280;29359;53.048;8.732;2023-07-20T06:28:41;101464.06;;;16.11;83.85
43745;BME280;29359;53.048;8.732;2023-07-20T06:30:44;101462.25;;;16.12;83.73
43745;BME280;29359;53.048;8.732;2023-07-20T06:32:47;101464.81;;;16.15;83.60
43745;BME280;29359;53.048;8.732;2023-07-20T06:34:50;101474.28;;;16.22;84.73
43745;BME280;29359;53.048;8.732;2023-07-20T06:36:53;101469.75;;;16.24;83.63
43745;BME280;29359;53.048;8.732;2023-07-20T06:38:56;101476.69;;;16.28;82.80
43745;BME280;29359;53.048;8.732;2023-07-20T06:41:01;101472.03;;;16.33;83.24
43745;BME280;29359;53.048;8.732;2023-07-20T06:43:07;101472.56;;;16.41;83.25
43745;BME280;29359;53.048;8.732;2023-07-20T06:45:14;101472.28;;;16.47;82.44
43745;BME280;29359;53.048;8.732;2023-07-20T06:47:17;101477.69;;;16.46;80.57
43745;BME280;29359;53.048;8.732;2023-07-20T06:49:26;101475.03;;;16.46;80.26
43745;BME280;29359;53.048;8.732;2023-07-20T06:51:28;101475.03;;;16.46;80.74
43745;BME280;29359;53.048;8.732;2023-07-20T06:53:32;101474.16;;;16.45;81.18
43745;BME280;29359;53.048;8.732;2023-07-20T06:55:35;101476.03;;;16.43;80.88
43745;BME280;29359;53.048;8.732;2023-07-20T06:57:43;101472.63;;;16.40;80.42
43745;BME280;29359;53.048;8.732;2023-07-20T06:59:49;101471.50;;;16.45;81.18
43745;BME280;29359;53.048;8.732;2023-07-20T07:01:54;101471.34;;;16.50;80.63
43745;BME280;29359;53.048;8.732;2023-07-20T07:03:57;101473.22;;;16.46;79.35
43745;BME280;29359;53.048;8.732;2023-07-20T07:06:00;101477.53;;;16.50;79.99
43745;BME280;29359;53.048;8.732;2023-07-20T07:08:03;101466.47;;;16.59;80.88
43745;BME280;29359;53.048;8.732;2023-07-20T07:10:07;101483.75;;;16.71;80.92
43745;BME280;29359;53.048;8.732;2023-07-20T07:12:10;101479.09;;;16.76;79.13
43745;BME280;29359;53.048;8.732;2023-07-20T07:14:13;101481.03;;;16.73;78.57
43745;BME280;29359;53.048;8.732;2023-07-20T07:16:16;101481.84;;;16.75;77.99
43745;BME280;29359;53.048;8.732;2023-07-20T07:18:25;101480.56;;;16.83;77.09
43745;BME280;29359;53.048;8.732;2023-07-20T07:20:29;101477.25;;;16.99;77.10
43745;BME280;29359;53.048;8.732;2023-07-20T07:22:31;101487.91;;;16.99;73.65
43745;BME280;29359;53.048;8.732;2023-07-20T07:24:34;101487.31;;;16.92;72.57
43745;BME280;29359;53.048;8.732;2023-07-20T07:26:37;101488.63;;;16.82;73.11
43745;BME280;29359;53.048;8.732;2023-07-20T07:28:40;101491.34;;;16.80;74.00
43745;BME280;29359;53.048;8.732;2023-07-20T07:30:43;101486.22;;;16.76;74.54
43745;BME280;29359;53.048;8.732;2023-07-20T07:32:46;101486.88;;;16.81;75.62
43745;BME280;29359;53.048;8.732;2023-07-20T07:34:50;101492.69;;;16.90;75.18
43745;BME280;29359;53.048;8.732;2023-07-20T07:36:53;101480.63;;;17.02;75.48
43745;BME280;29359;53.048;8.732;2023-07-20T07:38:56;101485.75;;;17.07;73.86
43745;BME280;29359;53.048;8.732;2023-07-20T07:41:01;101486.75;;;17.04;74.50
43745;BME280;29359;53.048;8.732;2023-07-20T07:43:04;101489.44;;;17.04;74.29
43745;BME280;29359;53.048;8.732;2023-07-20T07:45:08;101488.34;;;17.08;72.77
43745;BME280;29359;53.048;8.732;2023-07-20T07:47:11;101489.16;;;17.10;71.97
43745;BME280;29359;53.048;8.732;2023-07-20T07:49:14;101495.34;;;17.11;71.67
43745;BME280;29359;53.048;8.732;2023-07-20T07:51:18;101493.41;;;17.14;70.70
43745;BME280;29359;53.048;8.732;2023-07-20T07:53:21;101490.84;;;17.32;72.17
43745;BME280;29359;53.048;8.732;2023-07-20T07:55:24;101493.78;;;17.46;72.03
43745;BME280;29359;53.048;8.732;2023-07-20T07:57:28;101500.91;;;17.64;71.64
43745;BME280;29359;53.048;8.732;2023-07-20T07:59:31;101494.84;;;17.61;69.24
43745;BME280;29359;53.048;8.732;2023-07-20T08:01:38;101498.31;;;17.44;68.34
43745;BME280;29359;53.048;8.732;2023-07-20T08:03:40;101503.47;;;17.28;68.77
43745;BME280;29359;53.048;8.732;2023-07-20T08:05:43;101506.19;;;17.26;69.31
43745;BME280;29359;53.048;8.732;2023-07-20T08:07:47;101502.31;;;17.34;69.30
43745;BME280;29359;53.048;8.732;2023-07-20T08:09:50;101509.28;;;17.38;69.13
43745;BME280;29359;53.048;8.732;2023-07-20T08:11:53;101502.06;;;17.40;69.22
43745;BME280;29359;53.048;8.732;2023-07-20T08:13:56;101508.13;;;17.43;68.70
43745;BME280;29359;53.048;8.732;2023-07-20T08:15:59;101508.63;;;17.51;69.61
43745;BME280;29359;53.048;8.732;2023-07-20T08:18:03;101503.88;;;17.58;69.89
43745;BME280;29359;53.048;8.732;2023-07-20T08:20:08;101507.81;;;17.70;68.85
43745;BME280;29359;53.048;8.732;2023-07-20T08:22:13;101512.22;;;17.71;67.09
43745;BME280;29359;53.048;8.732;2023-07-20T08:24:17;101514.72;;;17.74;67.19
43745;BME280;29359;53.048;8.732;2023-07-20T08:26:20;101512.66;;;17.80;66.23
43745;BME280;29359;53.048;8.732;2023-07-20T08:28:24;101511.44;;;17.87;64.99
43745;BME280;29359;53.048;8.732;2023-07-20T08:30:39;101517.41;;;17.93;64.12
43745;BME280;29359;53.048;8.732;2023-07-20T08:32:43;101515.84;;;17.88;63.92
43745;BME280;29359;53.048;8.732;2023-07-20T08:34:45;101509.56;;;17.89;64.24
43745;BME280;29359;53.048;8.732;2023-07-20T08:36:48;101514.97;;;17.88;63.92
43745;BME280;29359;53.048;8.732;2023-07-20T08:38:51;101518.13;;;17.96;65.18
43745;BME280;29359;53.048;8.732;2023-07-20T08:40:55;101512.56;;;18.01;64.50
43745;BME280;29359;53.048;8.732;2023-07-20T08:43:01;101521.97;;;17.91;63.28
43745;BME280;29359;53.048;8.732;2023-07-20T08:45:07;101522.16;;;17.67;63.39
43745;BME280;29359;53.048;8.732;2023-07-20T08:47:12;101521.91;;;17.53;65.50
43745;BME280;29359;53.048;8.732;2023-07-20T08:49:17;101528.53;;;17.44;64.97
43745;BME280;29359;53.048;8.732;2023-07-20T08:51:21;101530.94;;;17.50;64.58
43745;BME280;29359;53.048;8.732;2023-07-20T08:53:24;101524.94;;;17.64;64.04
43745;BME280;29359;53.048;8.732;2023-07-20T08:55:27;101510.63;;;17.85;63.72
43745;BME280;29359;53.048;8.732;2023-07-20T08:57:33;101522.69;;;17.94;63.31
43745;BME280;29359;53.048;8.732;2023-07-20T08:59:36;101531.63;;;17.93;60.92
43745;BME280;29359;53.048;8.732;2023-07-20T09:01:40;101527.53;;;17.86;61.39
43745;BME280;29359;53.048;8.732;2023-07-20T09:03:44;101528.81;;;17.77;62.32
43745;BME280;29359;53.048;8.732;2023-07-20T09:05:48;101531.69;;;17.73;63.69
43745;BME280;29359;53.048;8.732;2023-07-20T09:07:51;101524.75;;;17.69;64.16
43745;BME280;29359;53.048;8.732;2023-07-20T09:09:57;101528.09;;;17.74;65.41
43745;BME280;29359;53.048;8.732;2023-07-20T09:12:00;101525.00;;;17.83;64.87
43745;BME280;29359;53.048;8.732;2023-07-20T09:14:05;101525.50;;;17.91;64.06
43745;BME280;29359;53.048;8.732;2023-07-20T09:16:08;101524.91;;;18.03;63.63
43745;BME280;29359;53.048;8.732;2023-07-20T09:18:12;101529.59;;;18.17;63.38
43745;BME280;29359;53.048;8.732;2023-07-20T09:20:25;101525.03;;;18.19;60.48
43745;BME280;29359;53.048;8.732;2023-07-20T09:22:29;101523.09;;;18.23;60.94
43745;BME280;29359;53.048;8.732;2023-07-20T09:24:33;101528.63;;;18.37;61.98
43745;BME280;29359;53.048;8.732;2023-07-20T09:26:40;101523.53;;;18.49;61.09
43745;BME280;29359;53.048;8.732;2023-07-20T09:28:44;101522.28;;;18.57;61.36
43745;BME280;29359;53.048;8.732;2023-07-20T09:30:51;101513.84;;;18.66;61.43
43745;BME280;29359;53.048;8.732;2023-07-20T09:32:54;101522.34;;;18.74;61.67
43745;BME280;29359;53.048;8.732;2023-07-20T09:34:57;101525.47;;;18.82;61.84
43745;BME280;29359;53.048;8.732;2023-07-20T09:37:20;101521.00;;;18.82;61.82
43745;BME280;29359;53.048;8.732;2023-07-20T09:39:24;101526.09;;;18.87;62.49
43745;BME280;29359;53.048;8.732;2023-07-20T09:41:39;101524.69;;;18.80;60.19
43745;BME280;29359;53.048;8.732;2023-07-20T09:43:47;101517.22;;;18.69;56.15
43745;BME280;29359;53.048;8.732;2023-07-20T09:45:57;101516.03;;;18.75;56.12
43745;BME280;29359;53.048;8.732;2023-07-20T09:48:03;101514.63;;;18.85;56.16
43745;BME280;29359;53.048;8.732;2023-07-20T09:50:09;101515.00;;;18.95;56.66
43745;BME280;29359;53.048;8.732;2023-07-20T09:52:16;101518.84;;;19.06;59.01
43745;BME280;29359;53.048;8.732;2023-07-20T09:54:39;101511.13;;;19.18;58.48
43745;BME280;29359;53.048;8.732;2023-07-20T09:56:43;101503.63;;;19.24;58.12
43745;BME280;29359;53.048;8.732;2023-07-20T09:58:46;101514.09;;;19.29;59.07
43745;BME280;29359;53.048;8.732;2023-07-20T10:00:52;101505.19;;;19.28;58.62
43745;BME280;29359;53.048;8.732;2023-07-20T10:02:58;101521.19;;;19.30;58.22
43745;BME280;29359;53.048;8.732;2023-07-20T10:05:05;101517.56;;;19.31;56.91
43745;BME280;29359;53.048;8.732;2023-07-20T10:07:10;101512.75;;;19.55;58.35
43745;BME280;29359;53.048;8.732;2023-07-20T10:09:14;101516.47;;;19.68;56.10
43745;BME280;29359;53.048;8.732;2023-07-20T10:11:17;101541.00;;;19.60;57.54
43745;BME280;29359;53.048;8.732;2023-07-20T10:13:26;101545.06;;;19.00;60.16
43745;BME280;29359;53.048;8.732;2023-07-20T10:15:32;101553.06;;;18.29;64.30
43745;BME280;29359;53.048;8.732;2023-07-20T10:17:43;101553.06;;;17.73;68.53
43745;BME280;29359;53.048;8.732;2023-07-20T10:19:54;101559.22;;;17.34;72.57
43745;BME280;29359;53.048;8.732;2023-07-20T10:22:00;101555.31;;;17.02;74.98
43745;BME280;29359;53.048;8.732;2023-07-20T10:24:11;101552.38;;;16.88;77.90
43745;BME280;29359;53.048;8.732;2023-07-20T10:26:14;101556.09;;;16.84;80.05
43745;BME280;29359;53.048;8.732;2023-07-20T10:28:17;101545.50;;;16.82;80.52
43745;BME280;29359;53.048;8.732;2023-07-20T10:30:19;101544.44;;;16.86;80.19
43745;BME280;29359;53.048;8.732;2023-07-20T10:32:23;101543.31;;;16.92;78.50
43745;BME280;29359;53.048;8.732;2023-07-20T10:34:27;101546.41;;;17.03;78.92
43745;BME280;29359;53.048;8.732;2023-07-20T10:36:31;101537.91;;;17.14;77.88
43745;BME280;29359;53.048;8.732;2023-07-20T10:38:40;101529.34;;;17.26;77.71
43745;BME280;29359;53.048;8.732;2023-07-20T10:40:53;101534.59;;;17.48;78.24
43745;BME280;29359;53.048;8.732;2023-07-20T10:42:58;101532.78;;;17.69;77.00
43745;BME280;29359;53.048;8.732;2023-07-20T10:45:03;101530.13;;;17.87;75.23
43745;BME280;29359;53.048;8.732;2023-07-20T10:47:09;101531.63;;;18.12;73.69